sensor_id;sensor_type;location;lat;lon;timestamp;pressure;altitude;pressure_sealevel;temperature;humidity
17607;BME280;8922;52.240;20.980;2023-02-20T00:01:55;100321.94;;;1.57;68.92
17607;BME280;8922;52.240;20.980;2023-02-20T00:04:24;100327.88;;;1.57;68.63
17607;BME280;8922;52.240;20.980;2023-02-20T00:06:52;100319.38;;;1.55;69.11
17607;BME280;8922;52.240;20.980;2023-02-20T00:09:21;100335.47;;;1.56;68.92
17607;BME280;8922;52.240;20.980;2023-02-20T00:11:51;100315.97;;;1.55;68.81
17607;BME280;8922;52.240;20.980;2023-02-20T00:14:20;100316.00;;;1.56;69.18
17607;BME280;8922;52.240;20.980;2023-02-20T00:16:49;100309.22;;;1.55;68.80
17607;BME280;8922;52.240;20.980;2023-02-20T00:19:18;100303.34;;;1.58;67.90
17607;BME280;8922;52.240;20.980;2023-02-20T00:21:47;100303.34;;;1.58;68.18
17607;BME280;8922;52.240;20.980;2023-02-20T00:24:16;100294.09;;;1.60;68.07
17607;BME280;8922;52.240;20.980;2023-02-20T00:26:46;100284.78;;;1.60;67.66
17607;BME280;8922;52.240;20.980;2023-02-20T00:29:18;100304.38;;;1.64;67.95
17607;BME280;8922;52.240;20.980;2023-02-20T00:31:50;100304.44;;;1.66;67.35
17607;BME280;8922;52.240;20.980;2023-02-20T00:34:23;100301.91;;;1.66;67.35
17607;BME280;8922;52.240;20.980;2023-02-20T00:36:53;100312.84;;;1.65;67.61
17607;BME280;8922;52.240;20.980;2023-02-20T00:39:22;100295.06;;;1.65;66.93
17607;BME280;8922;52.240;20.980;2023-02-20T00:41:50;100301.91;;;1.66;66.73
17607;BME280;8922;52.240;20.980;2023-02-20T00:44:20;100303.56;;;1.65;66.48
17607;BME280;8922;52.240;20.980;2023-02-20T00:46:49;100302.69;;;1.65;66.18
17607;BME280;8922;52.240;20.980;2023-02-20T00:49:18;100306.09;;;1.65;66.79
17607;BME280;8922;52.240;20.980;2023-02-20T00:51:46;100308.69;;;1.67;66.20
17607;BME280;8922;52.240;20.980;2023-02-20T00:54:15;100323.94;;;1.67;66.51
17607;BME280;8922;52.240;20.980;2023-02-20T00:56:43;100306.09;;;1.65;66.25
17607;BME280;8922;52.240;20.980;2023-02-20T00:59:12;100301.81;;;1.63;66.32
17607;BME280;8922;52.240;20.980;2023-02-20T01:01:42;100309.47;;;1.64;66.14
17607;BME280;8922;52.240;20.980;2023-02-20T01:04:10;100309.47;;;1.64;66.63
17607;BME280;8922;52.240;20.980;2023-02-20T01:06:39;100300.06;;;1.62;66.06
17607;BME280;8922;52.240;20.980;2023-02-20T01:09:08;100297.59;;;1.63;66.58
17607;BME280;8922;52.240;20.980;2023-02-20T01:11:36;100302.66;;;1.63;66.33
17607;BME280;8922;52.240;20.980;2023-02-20T01:14:05;100304.28;;;1.61;66.11
17607;BME280;8922;52.240;20.980;2023-02-20T01:16:34;100300.84;;;1.59;66.40
17607;BME280;8922;52.240;20.980;2023-02-20T01:19:04;100307.63;;;1.59;66.15
17607;BME280;8922;52.240;20.980;2023-02-20T01:21:32;100301.63;;;1.57;66.05
17607;BME280;8922;52.240;20.980;2023-02-20T01:24:00;100302.44;;;1.56;66.12
17607;BME280;8922;52.240;20.980;2023-02-20T01:26:29;100295.66;;;1.55;66.39
17607;BME280;8922;52.240;20.980;2023-02-20T01:28:58;100287.16;;;1.54;66.27
17607;BME280;8922;52.240;20.980;2023-02-20T01:31:27;100278.75;;;1.55;66.90
17607;BME280;8922;52.240;20.980;2023-02-20T01:33:55;100285.50;;;1.55;66.71
17607;BME280;8922;52.240;20.980;2023-02-20T01:36:25;100277.91;;;1.56;66.18
17607;BME280;8922;52.240;20.980;2023-02-20T01:38:54;100279.59;;;1.56;66.36
17607;BME280;8922;52.240;20.980;2023-02-20T01:41:23;100277.09;;;1.57;66.30
17607;BME280;8922;52.240;20.980;2023-02-20T01:43:52;100285.63;;;1.59;66.34
17607;BME280;8922;52.240;20.980;2023-02-20T01:46:44;100294.13;;;1.61;66.54
17607;BME280;8922;52.240;20.980;2023-02-20T01:49:20;100294.97;;;1.62;66.20
17607;BME280;8922;52.240;20.980;2023-02-20T01:51:57;100283.97;;;1.61;66.21
17607;BME280;8922;52.240;20.980;2023-02-20T01:54:27;100284.88;;;1.63;66.55
17607;BME280;8922;52.240;20.980;2023-02-20T01:56:59;100273.13;;;1.67;66.65
17607;BME280;8922;52.240;20.980;2023-02-20T01:59:32;100271.47;;;1.69;67.08
17607;BME280;8922;52.240;20.980;2023-02-20T02:02:03;100269.75;;;1.68;66.24
17607;BME280;8922;52.240;20.980;2023-02-20T02:04:34;100268.09;;;1.68;66.71
17607;BME280;8922;52.240;20.980;2023-02-20T02:07:06;100273.13;;;1.67;66.96
17607;BME280;8922;52.240;20.980;2023-02-20T02:09:41;100271.41;;;1.66;66.95
17607;BME280;8922;52.240;20.980;2023-02-20T02:12:12;100277.28;;;1.65;66.67
17607;BME280;8922;52.240;20.980;2023-02-20T02:14:41;100262.97;;;1.67;67.00
17607;BME280;8922;52.240;20.980;2023-02-20T02:17:39;100263.00;;;1.68;66.49
17607;BME280;8922;52.240;20.980;2023-02-20T02:21:02;100254.59;;;1.69;67.05
17607;BME280;8922;52.240;20.980;2023-02-20T02:31:29;100271.69;;;1.77;66.02
17607;BME280;8922;52.240;20.980;2023-02-20T02:34:31;100270.03;;;1.77;65.97
17607;BME280;8922;52.240;20.980;2023-02-20T02:37:14;100273.44;;;1.78;66.83
17607;BME280;8922;52.240;20.980;2023-02-20T02:39:51;100268.34;;;1.78;66.70
17607;BME280;8922;52.240;20.980;2023-02-20T02:42:31;100263.31;;;1.79;66.73
17607;BME280;8922;52.240;20.980;2023-02-20T02:45:15;100254.81;;;1.79;66.25
17607;BME280;8922;52.240;20.980;2023-02-20T02:47:49;100256.50;;;1.78;66.38
17607;BME280;8922;52.240;20.980;2023-02-20T02:50:22;100257.38;;;1.79;66.55
17607;BME280;8922;52.240;20.980;2023-02-20T02:52:56;100263.28;;;1.78;66.53
17607;BME280;8922;52.240;20.980;2023-02-20T02:55:28;100272.56;;;1.77;66.33
17607;BME280;8922;52.240;20.980;2023-02-20T02:57:57;100269.16;;;1.77;67.11
17607;BME280;8922;52.240;20.980;2023-02-20T03:00:30;100270.03;;;1.77;66.71
17607;BME280;8922;52.240;20.980;2023-02-20T03:03:12;100266.59;;;1.77;66.37
17607;BME280;8922;52.240;20.980;2023-02-20T03:05:48;100254.78;;;1.77;66.97
17607;BME280;8922;52.240;20.980;2023-02-20T03:08:25;100257.34;;;1.77;66.65
17607;BME280;8922;52.240;20.980;2023-02-20T03:11:05;100261.53;;;1.77;66.62
17607;BME280;8922;52.240;20.980;2023-02-20T03:13:39;100259.06;;;1.78;67.06
17607;BME280;8922;52.240;20.980;2023-02-20T03:16:30;100257.28;;;1.76;67.00
17607;BME280;8922;52.240;20.980;2023-02-20T03:19:02;100262.41;;;1.77;66.97
17607;BME280;8922;52.240;20.980;2023-02-20T03:21:36;100255.59;;;1.76;66.69
17607;BME280;8922;52.240;20.980;2023-02-20T03:24:09;100256.38;;;1.74;67.04
17607;BME280;8922;52.240;20.980;2023-02-20T03:26:41;100249.63;;;1.74;67.01
17607;BME280;8922;52.240;20.980;2023-02-20T03:29:16;100253.03;;;1.75;67.08
17607;BME280;8922;52.240;20.980;2023-02-20T03:31:49;100255.53;;;1.73;67.03
17607;BME280;8922;52.240;20.980;2023-02-20T03:34:38;100250.41;;;1.72;67.40
17607;BME280;8922;52.240;20.980;2023-02-20T03:37:27;100241.88;;;1.69;66.82
17607;BME280;8922;52.240;20.980;2023-02-20T03:40:17;100253.66;;;1.67;67.29
17607;BME280;8922;52.240;20.980;2023-02-20T03:43:08;100251.09;;;1.66;66.70
17607;BME280;8922;52.240;20.980;2023-02-20T03:45:51;100249.34;;;1.63;66.87
17607;BME280;8922;52.240;20.980;2023-02-20T03:48:31;100246.72;;;1.62;67.42
17607;BME280;8922;52.240;20.980;2023-02-20T03:51:02;100254.34;;;1.62;67.22
17607;BME280;8922;52.240;20.980;2023-02-20T03:53:31;100248.41;;;1.61;67.01
17607;BME280;8922;52.240;20.980;2023-02-20T03:56:04;100244.19;;;1.62;67.06
17607;BME280;8922;52.240;20.980;2023-02-20T03:58:39;100240.75;;;1.60;67.18
17607;BME280;8922;52.240;20.980;2023-02-20T04:01:11;100240.75;;;1.60;67.59
17607;BME280;8922;52.240;20.980;2023-02-20T04:03:42;100255.16;;;1.59;67.13
17607;BME280;8922;52.240;20.980;2023-02-20T04:06:13;100242.38;;;1.58;67.21
17607;BME280;8922;52.240;20.980;2023-02-20T04:08:48;100245.75;;;1.57;67.48
17607;BME280;8922;52.240;20.980;2023-02-20T04:11:23;100244.81;;;1.53;67.78
17607;BME280;8922;52.240;20.980;2023-02-20T04:13:54;100243.09;;;1.52;67.44
17607;BME280;8922;52.240;20.980;2023-02-20T04:16:23;100242.25;;;1.52;68.34
17607;BME280;8922;52.240;20.980;2023-02-20T04:18:52;100237.19;;;1.53;67.73
17607;BME280;8922;52.240;20.980;2023-02-20T04:21:28;100230.44;;;1.54;67.94
17607;BME280;8922;52.240;20.980;2023-02-20T04:24:03;100237.16;;;1.52;67.63
17607;BME280;8922;52.240;20.980;2023-02-20T04:26:35;100229.47;;;1.50;68.26
17607;BME280;8922;52.240;20.980;2023-02-20T04:29:05;100232.84;;;1.49;67.87
17607;BME280;8922;52.240;20.980;2023-02-20T04:31:33;100235.38;;;1.49;67.55
17607;BME280;8922;52.240;20.980;2023-02-20T04:34:02;100226.84;;;1.47;67.87
17607;BME280;8922;52.240;20.980;2023-02-20T04:36:30;100220.13;;;1.48;67.85
17607;BME280;8922;52.240;20.980;2023-02-20T04:38:59;100225.19;;;1.48;68.07
17607;BME280;8922;52.240;20.980;2023-02-20T04:41:27;100206.50;;;1.45;68.49
17607;BME280;8922;52.240;20.980;2023-02-20T04:43:57;100206.59;;;1.49;68.61
17607;BME280;8922;52.240;20.980;2023-02-20T04:46:40;100207.44;;;1.48;68.19
17607;BME280;8922;52.240;20.980;2023-02-20T04:49:08;100198.16;;;1.50;68.50
17607;BME280;8922;52.240;20.980;2023-02-20T04:51:37;100185.47;;;1.50;68.33
17607;BME280;8922;52.240;20.980;2023-02-20T04:54:05;100195.72;;;1.53;69.08
17607;BME280;8922;52.240;20.980;2023-02-20T04:56:34;100196.63;;;1.55;68.48
17607;BME280;8922;52.240;20.980;2023-02-20T04:59:04;100193.25;;;1.56;68.67
17607;BME280;8922;52.240;20.980;2023-02-20T05:01:32;100195.91;;;1.60;68.68
17607;BME280;8922;52.240;20.980;2023-02-20T05:04:01;100193.41;;;1.62;68.88
17607;BME280;8922;52.240;20.980;2023-02-20T05:06:29;100190.06;;;1.63;68.53
17607;BME280;8922;52.240;20.980;2023-02-20T05:08:57;100175.63;;;1.62;68.59
17607;BME280;8922;52.240;20.980;2023-02-20T05:11:26;100186.78;;;1.67;68.76
17607;BME280;8922;52.240;20.980;2023-02-20T05:13:55;100175.78;;;1.68;68.87
17607;BME280;8922;52.240;20.980;2023-02-20T05:16:25;100167.41;;;1.71;69.47
17607;BME280;8922;52.240;20.980;2023-02-20T05:18:53;100164.97;;;1.75;69.42
17607;BME280;8922;52.240;20.980;2023-02-20T05:21:22;100161.56;;;1.75;69.29
17607;BME280;8922;52.240;20.980;2023-02-20T05:24:07;100153.97;;;1.76;69.57
17607;BME280;8922;52.240;20.980;2023-02-20T05:26:36;100153.22;;;1.79;68.96
17607;BME280;8922;52.240;20.980;2023-02-20T05:29:05;100162.63;;;1.83;69.07
17607;BME280;8922;52.240;20.980;2023-02-20T05:31:37;100159.31;;;1.85;69.62
17607;BME280;8922;52.240;20.980;2023-02-20T05:34:05;100169.47;;;1.85;69.13
17607;BME280;8922;52.240;20.980;2023-02-20T05:36:34;100167.81;;;1.87;69.75
17607;BME280;8922;52.240;20.980;2023-02-20T05:39:03;100165.38;;;1.90;69.58
17607;BME280;8922;52.240;20.980;2023-02-20T05:41:32;100169.66;;;1.93;69.19
17607;BME280;8922;52.240;20.980;2023-02-20T05:44:00;100166.34;;;1.96;69.58
17607;BME280;8922;52.240;20.980;2023-02-20T05:46:29;100166.34;;;1.96;68.57
17607;BME280;8922;52.240;20.980;2023-02-20T05:48:58;100153.69;;;1.97;69.44
17607;BME280;8922;52.240;20.980;2023-02-20T05:51:28;100135.88;;;1.97;69.22
17607;BME280;8922;52.240;20.980;2023-02-20T05:54:00;100135.03;;;1.97;68.69
17607;BME280;8922;52.240;20.980;2023-02-20T05:56:28;100149.50;;;1.99;69.35
17607;BME280;8922;52.240;20.980;2023-02-20T05:58:59;100145.28;;;2.00;68.63
17607;BME280;8922;52.240;20.980;2023-02-20T06:01:30;100139.34;;;1.99;68.79
17607;BME280;8922;52.240;20.980;2023-02-20T06:04:00;100147.84;;;2.01;68.54
17607;BME280;8922;52.240;20.980;2023-02-20T06:06:32;100137.72;;;2.03;69.09
17607;BME280;8922;52.240;20.980;2023-02-20T06:09:02;100134.31;;;2.02;68.35
17607;BME280;8922;52.240;20.980;2023-02-20T06:11:31;100146.22;;;2.05;68.41
17607;BME280;8922;52.240;20.980;2023-02-20T06:13:59;100132.69;;;2.04;68.36
17607;BME280;8922;52.240;20.980;2023-02-20T06:16:29;100131.03;;;2.06;68.90
17607;BME280;8922;52.240;20.980;2023-02-20T06:19:00;100126.88;;;2.10;68.20
17607;BME280;8922;52.240;20.980;2023-02-20T06:21:28;100121.91;;;2.14;68.64
17607;BME280;8922;52.240;20.980;2023-02-20T06:23:57;100125.31;;;2.15;68.03
17607;BME280;8922;52.240;20.980;2023-02-20T06:26:25;100112.63;;;2.16;68.06
17607;BME280;8922;52.240;20.980;2023-02-20T06:28:53;100116.94;;;2.21;68.16
17607;BME280;8922;52.240;20.980;2023-02-20T06:31:25;100106.84;;;2.22;68.58
17607;BME280;8922;52.240;20.980;2023-02-20T06:33:55;100112.00;;;2.25;68.65
17607;BME280;8922;52.240;20.980;2023-02-20T06:36:28;100110.41;;;2.30;67.80
17607;BME280;8922;52.240;20.980;2023-02-20T06:38:57;100109.63;;;2.33;67.81
17607;BME280;8922;52.240;20.980;2023-02-20T06:41:26;100107.19;;;2.37;67.90
17607;BME280;8922;52.240;20.980;2023-02-20T06:43:55;100102.13;;;2.39;67.85
17607;BME280;8922;52.240;20.980;2023-02-20T06:46:24;100102.09;;;2.37;67.79
17607;BME280;8922;52.240;20.980;2023-02-20T06:48:54;100106.41;;;2.40;68.82
17607;BME280;8922;52.240;20.980;2023-02-20T06:51:28;100102.25;;;2.44;68.75
17607;BME280;8922;52.240;20.980;2023-02-20T06:53:57;100092.94;;;2.46;68.48
17607;BME280;8922;52.240;20.980;2023-02-20T06:56:29;100085.47;;;2.52;68.38
17607;BME280;8922;52.240;20.980;2023-02-20T06:58:59;100094.97;;;2.60;68.28
17607;BME280;8922;52.240;20.980;2023-02-20T07:01:29;100080.59;;;2.62;68.00
17607;BME280;8922;52.240;20.980;2023-02-20T07:03:58;100083.22;;;2.67;68.07
17607;BME280;8922;52.240;20.980;2023-02-20T07:06:30;100089.34;;;2.75;68.30
17607;BME280;8922;52.240;20.980;2023-02-20T07:08:58;100088.56;;;2.79;67.43
17607;BME280;8922;52.240;20.980;2023-02-20T07:11:27;100093.03;;;2.89;67.99
17607;BME280;8922;52.240;20.980;2023-02-20T07:13:55;100081.28;;;2.96;67.77
17607;BME280;8922;52.240;20.980;2023-02-20T07:16:24;100073.78;;;3.04;67.40
17607;BME280;8922;52.240;20.980;2023-02-20T07:18:53;100066.28;;;3.10;67.65
17607;BME280;8922;52.240;20.980;2023-02-20T07:21:21;100068.13;;;3.17;66.66
17607;BME280;8922;52.240;20.980;2023-02-20T07:23:51;100069.03;;;3.22;67.32
17607;BME280;8922;52.240;20.980;2023-02-20T07:26:22;100070.75;;;3.23;67.31
17607;BME280;8922;52.240;20.980;2023-02-20T07:28:51;100064.84;;;3.24;66.81
17607;BME280;8922;52.240;20.980;2023-02-20T07:31:20;100082.75;;;3.29;67.01
17607;BME280;8922;52.240;20.980;2023-02-20T07:33:49;100064.94;;;3.30;66.45
17607;BME280;8922;52.240;20.980;2023-02-20T07:36:18;100073.53;;;3.35;67.32
17607;BME280;8922;52.240;20.980;2023-02-20T07:38:54;100073.63;;;3.42;66.87
17607;BME280;8922;52.240;20.980;2023-02-20T07:41:23;100066.97;;;3.50;67.44
17607;BME280;8922;52.240;20.980;2023-02-20T07:43:52;100076.44;;;3.55;67.41
17607;BME280;8922;52.240;20.980;2023-02-20T07:46:21;100072.31;;;3.62;66.72
17607;BME280;8922;52.240;20.980;2023-02-20T07:48:49;100075.72;;;3.64;65.86
17607;BME280;8922;52.240;20.980;2023-02-20T07:51:19;100065.53;;;3.64;65.94
17607;BME280;8922;52.240;20.980;2023-02-20T07:53:48;100048.59;;;3.68;66.25
17607;BME280;8922;52.240;20.980;2023-02-20T07:56:20;100039.34;;;3.73;66.39
17607;BME280;8922;52.240;20.980;2023-02-20T07:58:49;100027.59;;;3.81;66.54
17607;BME280;8922;52.240;20.980;2023-02-20T08:01:18;100024.34;;;3.91;66.72
17607;BME280;8922;52.240;20.980;2023-02-20T08:03:47;100021.81;;;3.93;65.31
17607;BME280;8922;52.240;20.980;2023-02-20T08:06:16;100013.38;;;3.95;65.68
17607;BME280;8922;52.240;20.980;2023-02-20T08:08:48;99993.03;;;4.00;65.69
17607;BME280;8922;52.240;20.980;2023-02-20T08:11:19;99978.63;;;4.05;65.71
17607;BME280;8922;52.240;20.980;2023-02-20T08:13:49;99986.44;;;4.14;66.08
17607;BME280;8922;52.240;20.980;2023-02-20T08:16:17;99983.09;;;4.18;65.15
17607;BME280;8922;52.240;20.980;2023-02-20T08:18:46;99978.81;;;4.17;65.50
17607;BME280;8922;52.240;20.980;2023-02-20T08:21:15;99975.41;;;4.17;65.78
17607;BME280;8922;52.240;20.980;2023-02-20T08:23:43;99978.03;;;4.21;65.71
17607;BME280;8922;52.240;20.980;2023-02-20T08:26:12;99972.09;;;4.22;66.09
17607;BME280;8922;52.240;20.980;2023-02-20T08:28:42;99969.63;;;4.28;65.64
17607;BME280;8922;52.240;20.980;2023-02-20T08:31:11;99960.28;;;4.29;66.36
17607;BME280;8922;52.240;20.980;2023-02-20T08:33:57;99940.72;;;4.29;65.81
17607;BME280;8922;52.240;20.980;2023-02-20T08:36:25;99945.81;;;4.28;66.02
17607;BME280;8922;52.240;20.980;2023-02-20T08:38:54;99933.03;;;4.26;66.40
17607;BME280;8922;52.240;20.980;2023-02-20T08:41:23;99935.56;;;4.25;67.00
17607;BME280;8922;52.240;20.980;2023-02-20T08:43:53;99938.91;;;4.21;66.61
17607;BME280;8922;52.240;20.980;2023-02-20T08:46:21;99932.03;;;4.15;66.85
17607;BME280;8922;52.240;20.980;2023-02-20T08:48:49;99937.03;;;4.07;67.27
17607;BME280;8922;52.240;20.980;2023-02-20T08:51:19;99934.41;;;4.00;67.97
17607;BME280;8922;52.240;20.980;2023-02-20T08:53:48;99932.66;;;3.96;69.69
17607;BME280;8922;52.240;20.980;2023-02-20T08:56:17;99937.69;;;3.91;69.68
17607;BME280;8922;52.240;20.980;2023-02-20T08:58:46;99924.84;;;3.83;70.29
17607;BME280;8922;52.240;20.980;2023-02-20T09:01:16;99906.06;;;3.78;70.76
17607;BME280;8922;52.240;20.980;2023-02-20T09:03:44;99909.47;;;3.77;71.74
17607;BME280;8922;52.240;20.980;2023-02-20T09:06:15;99901.81;;;3.76;71.38
17607;BME280;8922;52.240;20.980;2023-02-20T09:08:43;99884.72;;;3.70;72.30
17607;BME280;8922;52.240;20.980;2023-02-20T09:11:13;99875.34;;;3.66;72.67
17607;BME280;8922;52.240;20.980;2023-02-20T09:13:42;99865.91;;;3.59;72.95
17607;BME280;8922;52.240;20.980;2023-02-20T09:16:11;99862.34;;;3.49;73.28
17607;BME280;8922;52.240;20.980;2023-02-20T09:18:42;99857.94;;;3.37;74.25
17607;BME280;8922;52.240;20.980;2023-02-20T09:21:13;99849.34;;;3.29;74.97
17607;BME280;8922;52.240;20.980;2023-02-20T09:23:41;99837.34;;;3.21;75.35
17607;BME280;8922;52.240;20.980;2023-02-20T09:26:10;99826.22;;;3.14;75.37
17607;BME280;8922;52.240;20.980;2023-02-20T09:28:39;99828.72;;;3.11;75.31
17607;BME280;8922;52.240;20.980;2023-02-20T09:31:07;99819.28;;;3.05;75.92
17607;BME280;8922;52.240;20.980;2023-02-20T09:33:36;99811.59;;;3.01;76.75
17607;BME280;8922;52.240;20.980;2023-02-20T09:36:07;99799.66;;;2.97;76.73
17607;BME280;8922;52.240;20.980;2023-02-20T09:38:35;99779.28;;;2.97;77.54
17607;BME280;8922;52.240;20.980;2023-02-20T09:41:04;99770.81;;;2.96;77.65
17607;BME280;8922;52.240;20.980;2023-02-20T09:43:45;99750.44;;;2.98;78.56
17607;BME280;8922;52.240;20.980;2023-02-20T09:46:19;99756.38;;;2.98;78.52
17607;BME280;8922;52.240;20.980;2023-02-20T09:49:04;99754.69;;;2.97;78.39
17607;BME280;8922;52.240;20.980;2023-02-20T09:51:41;99738.53;;;2.94;78.73
17607;BME280;8922;52.240;20.980;2023-02-20T09:54:15;99727.50;;;2.93;78.74
17607;BME280;8922;52.240;20.980;2023-02-20T09:56:49;99704.56;;;2.92;78.68
17607;BME280;8922;52.240;20.980;2023-02-20T09:59:21;99709.72;;;2.95;78.74
17607;BME280;8922;52.240;20.980;2023-02-20T10:01:54;99700.38;;;2.95;78.78
17607;BME280;8922;52.240;20.980;2023-02-20T10:04:26;99693.56;;;2.93;79.23
17607;BME280;8922;52.240;20.980;2023-02-20T10:07:05;99689.31;;;2.92;78.74
17607;BME280;8922;52.240;20.980;2023-02-20T10:09:41;99663.81;;;2.88;79.28
17607;BME280;8922;52.240;20.980;2023-02-20T10:12:19;99670.56;;;2.86;79.47
17607;BME280;8922;52.240;20.980;2023-02-20T10:15:17;99667.22;;;2.87;79.30
17607;BME280;8922;52.240;20.980;2023-02-20T10:17:55;99665.53;;;2.89;80.24
17607;BME280;8922;52.240;20.980;2023-02-20T10:20:35;99655.34;;;2.89;80.49
17607;BME280;8922;52.240;20.980;2023-02-20T10:23:14;99651.09;;;2.90;80.58
17607;BME280;8922;52.240;20.980;2023-02-20T10:25:49;99651.16;;;2.93;79.91
17607;BME280;8922;52.240;20.980;2023-02-20T10:28:20;99635.88;;;2.93;80.19
17607;BME280;8922;52.240;20.980;2023-02-20T10:30:55;99647.81;;;2.97;80.22
17607;BME280;8922;52.240;20.980;2023-02-20T10:33:32;99632.56;;;2.99;80.34
17607;BME280;8922;52.240;20.980;2023-02-20T10:36:08;99634.28;;;3.00;80.44
17607;BME280;8922;52.240;20.980;2023-02-20T10:38:46;99607.13;;;3.00;80.21
17607;BME280;8922;52.240;20.980;2023-02-20T10:41:22;99608.81;;;3.01;80.52
17607;BME280;8922;52.240;20.980;2023-02-20T10:43:59;99601.22;;;3.03;80.74
17607;BME280;8922;52.240;20.980;2023-02-20T10:46:35;99611.41;;;3.03;80.33
17607;BME280;8922;52.240;20.980;2023-02-20T10:49:20;99594.41;;;3.02;80.98
17607;BME280;8922;52.240;20.980;2023-02-20T10:51:54;99589.31;;;3.02;81.09
17607;BME280;8922;52.240;20.980;2023-02-20T10:54:33;99579.13;;;3.02;81.22
17607;BME280;8922;52.240;20.980;2023-02-20T10:57:10;99570.66;;;3.00;81.04
17607;BME280;8922;52.240;20.980;2023-02-20T10:59:45;99577.47;;;3.04;80.66
17607;BME280;8922;52.240;20.980;2023-02-20T11:02:22;99556.25;;;3.02;81.00
17607;BME280;8922;52.240;20.980;2023-02-20T11:04:57;99544.31;;;2.98;81.10
17607;BME280;8922;52.240;20.980;2023-02-20T11:07:28;99553.66;;;2.97;80.93
17607;BME280;8922;52.240;20.980;2023-02-20T11:09:58;99541.78;;;2.98;80.60
17607;BME280;8922;52.240;20.980;2023-02-20T11:12:31;99530.72;;;2.94;80.34
17607;BME280;8922;52.240;20.980;2023-02-20T11:15:08;99560.34;;;2.90;80.60
17607;BME280;8922;52.240;20.980;2023-02-20T11:17:39;99523.84;;;2.87;80.86
17607;BME280;8922;52.240;20.980;2023-02-20T11:20:42;99499.22;;;2.83;80.83
17607;BME280;8922;52.240;20.980;2023-02-20T11:23:37;99445.75;;;2.77;80.83
17607;BME280;8922;52.240;20.980;2023-02-20T11:26:28;99348.16;;;2.70;80.92
17607;BME280;8922;52.240;20.980;2023-02-20T11:29:04;99404.09;;;2.67;81.37
17607;BME280;8922;52.240;20.980;2023-02-20T11:31:34;99372.72;;;2.66;81.88
17607;BME280;8922;52.240;20.980;2023-02-20T11:34:04;99384.59;;;2.67;81.45
17607;BME280;8922;52.240;20.980;2023-02-20T11:36:38;99404.13;;;2.70;81.91
17607;BME280;8922;52.240;20.980;2023-02-20T11:39:23;99328.69;;;2.74;81.64
17607;BME280;8922;52.240;20.980;2023-02-20T11:42:10;99360.94;;;2.78;82.77
17607;BME280;8922;52.240;20.980;2023-02-20T11:44:39;99371.16;;;2.82;82.91
17607;BME280;8922;52.240;20.980;2023-02-20T11:47:25;99330.47;;;2.87;82.03
17607;BME280;8922;52.240;20.980;2023-02-20T11:50:16;99329.69;;;2.93;82.64
17607;BME280;8922;52.240;20.980;2023-02-20T11:53:00;99310.22;;;3.01;82.04
17607;BME280;8922;52.240;20.980;2023-02-20T11:55:31;99315.34;;;3.04;82.15
17607;BME280;8922;52.240;20.980;2023-02-20T11:58:01;99284.00;;;3.11;82.84
17607;BME280;8922;52.240;20.980;2023-02-20T12:00:44;99287.44;;;3.16;82.15
17607;BME280;8922;52.240;20.980;2023-02-20T12:03:20;99278.13;;;3.21;82.10
17607;BME280;8922;52.240;20.980;2023-02-20T12:05:49;99267.97;;;3.24;81.84
17607;BME280;8922;52.240;20.980;2023-02-20T12:08:42;99246.78;;;3.31;81.93
17607;BME280;8922;52.240;20.980;2023-02-20T12:11:16;99244.25;;;3.37;82.53
17607;BME280;8922;52.240;20.980;2023-02-20T12:13:49;99197.59;;;3.42;82.54
17607;BME280;8922;52.240;20.980;2023-02-20T12:16:36;99192.53;;;3.48;81.80
17607;BME280;8922;52.240;20.980;2023-02-20T12:19:16;99189.16;;;3.55;82.68
17607;BME280;8922;52.240;20.980;2023-02-20T12:21:58;99188.31;;;3.60;81.76
17607;BME280;8922;52.240;20.980;2023-02-20T12:24:47;99184.09;;;3.70;81.76
17607;BME280;8922;52.240;20.980;2023-02-20T12:28:02;99185.81;;;3.79;81.94
17607;BME280;8922;52.240;20.980;2023-02-20T12:31:01;99195.19;;;3.87;81.70
17607;BME280;8922;52.240;20.980;2023-02-20T12:33:53;99173.94;;;3.92;81.59
17607;BME280;8922;52.240;20.980;2023-02-20T12:36:30;99164.63;;;3.98;81.12
17607;BME280;8922;52.240;20.980;2023-02-20T12:39:06;99168.88;;;4.02;81.81
17607;BME280;8922;52.240;20.980;2023-02-20T12:41:57;99196.03;;;4.08;81.99
17607;BME280;8922;52.240;20.980;2023-02-20T12:44:52;99189.28;;;4.16;81.18
17607;BME280;8922;52.240;20.980;2023-02-20T12:47:30;99191.81;;;4.24;81.37
17607;BME280;8922;52.240;20.980;2023-02-20T12:50:47;99197.75;;;4.30;81.55
17607;BME280;8922;52.240;20.980;2023-02-20T12:53:32;99180.78;;;4.39;81.58
17607;BME280;8922;52.240;20.980;2023-02-20T12:56:16;99173.97;;;4.44;81.25
17607;BME280;8922;52.240;20.980;2023-02-20T12:58:51;99181.63;;;4.50;80.70
17607;BME280;8922;52.240;20.980;2023-02-20T13:01:23;99184.16;;;4.54;81.19
17607;BME280;8922;52.240;20.980;2023-02-20T13:04:19;99198.59;;;4.58;81.16
17607;BME280;8922;52.240;20.980;2023-02-20T13:06:59;99179.03;;;4.62;80.74
17607;BME280;8922;52.240;20.980;2023-02-20T13:09:32;99194.34;;;4.65;80.67
17607;BME280;8922;52.240;20.980;2023-02-20T13:12:09;99176.47;;;4.68;80.23
17607;BME280;8922;52.240;20.980;2023-02-20T13:14:55;99184.09;;;4.71;80.79
17607;BME280;8922;52.240;20.980;2023-02-20T13:17:35;99163.72;;;4.76;80.41
17607;BME280;8922;52.240;20.980;2023-02-20T13:20:15;99160.28;;;4.81;80.64
17607;BME280;8922;52.240;20.980;2023-02-20T13:22:59;99151.75;;;4.87;80.10
17607;BME280;8922;52.240;20.980;2023-02-20T13:25:40;99155.13;;;4.97;79.86
17607;BME280;8922;52.240;20.980;2023-02-20T13:28:35;99173.81;;;5.03;80.15
17607;BME280;8922;52.240;20.980;2023-02-20T13:31:16;99150.81;;;5.11;80.11
17607;BME280;8922;52.240;20.980;2023-02-20T13:33:50;99144.00;;;5.16;79.60
17607;BME280;8922;52.240;20.980;2023-02-20T13:36:42;99132.03;;;5.24;80.04
17607;BME280;8922;52.240;20.980;2023-02-20T13:39:49;99118.38;;;5.33;79.28
17607;BME280;8922;52.240;20.980;2023-02-20T13:42:33;99115.78;;;5.41;78.93
17607;BME280;8922;52.240;20.980;2023-02-20T13:47:45;99104.66;;;5.52;78.12
17607;BME280;8922;52.240;20.980;2023-02-20T13:50:31;99090.97;;;5.61;77.93
17607;BME280;8922;52.240;20.980;2023-02-20T13:53:03;99074.75;;;5.65;77.96